Lime City, Iowa
Current Conditions -  °F | °C
As of 8:15 AM on Monday 26 Jan 2015 (Local Time) from KMUT Reporting Station
Light Snow Light Snow  
Wind Chill: 15°   Ceiling: 300
Heat Index: 25°   Visibility: 1mi
Dew Point: 21°   Wind: 10mph
Humidity: 86%   Direction: 160°SSE
Pressure: 29.95"   Gusts: NA
Location:  41.5598°N, 90.9701°W
Report Text: KMUT 261415Z AUTO 16009KT 1SM -SN BKN003 OVC023 M04/M06 A2995 RMK AO2
Loading
Personal Weather Stations






























Interactive Weather Map New forecast layout! Learn more

10-Day Weather Forecast

Advertisements
Track Severe Weather on mobile